Latest Weather Observations for Point Fawcett

IDD60801

Issued at 8:35 pm CST Tuesday 2 September 2014 (issued every 30 minutes, with the page automatically refreshed every 10 minutes)

About weather observations | Map of weather stations | Latest weather observations for NT | Other Formats
Station Details ID: 200731 Name: POINT FAWCETT Lat: -11.76 Lon: 130.03 Height: 6.5 m
Data from the previous 72 hours. | See also: Recent months at Point Fawcett
Date/Time
CST
Temp
°C
App
Temp
°C
Dew
Point
Rel
Hum
%
Delta-T
°C
Wind Press
QNH
hPa
Press
MSL
hPa
Rain
since 9 am
mm
Dir
 
Spd
km/h
Gust
km/h
Spd
kts
Gust
kts
02/08:30pm 25.6 26.1 19.3 68 4.0 NW 15 17 8 9 1014.2 - -
02/08:00pm 25.7 26.1 19.1 67 4.2 NW 15 17 8 9 1013.8 - -
02/07:30pm 25.8 26.7 19.2 67 4.2 NW 13 17 7 9 1013.5 - -
02/07:00pm 26.0 26.6 19.4 67 4.3 NNW 15 17 8 9 1013.1 - -
02/06:30pm 26.3 26.9 19.4 66 4.5 NNW 15 19 8 10 1012.6 - -
02/06:00pm 27.2 28.0 19.0 61 5.3 NNW 13 17 7 9 1012.4 1012.3 -
02/05:30pm 28.0 28.4 19.0 58 5.8 NW 15 19 8 10 1012.2 - -
02/05:00pm 28.3 28.9 18.7 56 6.2 WNW 13 17 7 9 1012.1 - -
02/04:30pm 28.3 28.9 17.8 53 6.7 W 11 17 6 9 1012.2 - -
02/04:00pm 28.8 29.8 18.6 54 6.6 W 11 15 6 8 1012.1 - -
02/03:30pm 29.5 30.4 18.3 51 7.2 WSW 11 15 6 8 1012.4 - -
02/03:00pm 29.4 30.2 18.2 51 7.2 WSW 11 17 6 9 1012.8 1012.7 -
02/02:30pm 29.0 30.1 18.1 51 7.0 W 9 15 5 8 1012.9 - -
02/02:00pm 28.9 29.7 18.1 52 6.9 WNW 11 15 6 8 1013.1 - -
02/01:30pm 29.4 30.1 17.9 50 7.3 NW 11 13 6 7 1013.4 - -
02/01:00pm 29.4 30.3 18.5 52 7.0 WNW 11 13 6 7 1013.8 - -
02/12:30pm 29.4 30.2 18.2 51 7.2 NNW 11 15 6 8 1014.2 - -
02/12:00pm 29.2 29.9 18.0 51 7.1 NNW 11 15 6 8 1014.6 1014.5 -
02/11:30am 30.4 31.5 18.8 50 7.5 N 11 15 6 8 1015.0 - -
02/11:00am 29.3 29.7 18.1 51 7.2 N 13 19 7 10 1015.2 - -
02/10:30am 28.3 28.8 16.6 49 7.3 N 9 15 5 8 1015.4 - -
02/10:00am 27.4 29.4 19.2 61 5.3 N 7 9 4 5 1015.5 - -
02/09:30am 27.1 28.8 18.4 59 5.5 NNE 7 11 4 6 1015.4 - -
02/09:00am 25.7 26.8 17.9 62 4.9 ENE 9 13 5 7 1015.4 1015.3 -
02/08:30am 23.7 28.2 22.9 95 0.5 E 4 9 2 5 1015.6 - -
02/08:00am 20.3 22.5 19.6 96 0.4 ESE 7 9 4 5 1015.4 - -
02/07:30am 18.2 19.4 17.4 95 0.5 ESE 7 9 4 5 1015.3 - -
02/07:00am 17.6 18.2 16.8 95 0.5 E 9 11 5 6 1015.0 - -
02/06:30am 16.6 16.7 15.6 94 0.6 E 9 11 5 6 1014.6 - -
02/06:00am 17.3 18.1 16.3 94 0.6 ESE 7 9 4 5 1014.2 1014.1 -
02/05:30am 18.1 19.2 17.1 94 0.6 SE 7 9 4 5 1014.0 - -
02/05:00am 18.3 19.1 17.3 94 0.6 ESE 9 11 5 6 1014.1 - -
02/04:30am 18.9 20.0 17.9 94 0.6 E 9 11 5 6 1013.9 - -
02/04:00am 19.6 21.1 18.8 95 0.5 E 9 11 5 6 1013.7 - -
02/03:30am 20.0 21.6 19.2 95 0.5 E 9 13 5 7 1013.7 - -
02/03:00am 19.2 20.4 18.2 94 0.6 E 9 11 5 6 1013.9 1013.8 -
02/02:30am 18.4 19.2 17.4 94 0.6 ESE 9 11 5 6 1013.9 - -
02/02:00am 17.9 18.9 16.8 93 0.7 ESE 7 9 4 5 1014.1 - -
02/01:30am 18.1 19.1 16.9 93 0.7 E 7 9 4 5 1014.2 - -
02/01:00am 18.2 19.2 16.9 92 0.8 ESE 7 9 4 5 1014.3 - -
02/12:30am 18.7 20.1 17.4 92 0.8 SSE 6 7 3 4 1014.2 - -
02/12:00am 18.6 19.7 17.1 91 0.9 S 7 9 4 5 1014.1 1014.0 -
 
Date/Time
CST
Temp
°C
App
Temp
°C
Dew
Point
Rel
Hum
%
Delta-T
°C
Wind Press
QNH
hPa
Press
MSL
hPa
Rain
since 9 am
mm
Dir
 
Spd
km/h
Gust
km/h
Spd
kts
Gust
kts
01/11:30pm 18.9 20.2 17.2 90 1.0 S 6 9 3 5 1014.1 - -
01/11:00pm 19.2 20.4 17.3 89 1.2 S 7 9 4 5 1014.1 - -
01/10:30pm 19.7 20.9 17.3 86 1.5 SSW 7 9 4 5 1013.9 - -
01/10:00pm 20.2 21.3 17.2 83 1.8 S 7 7 4 4 1013.7 - -
01/09:30pm 21.6 22.9 17.6 78 2.5 SSW 7 11 4 6 1013.7 - -
01/09:00pm 24.2 25.8 19.1 73 3.3 WSW 9 13 5 7 1013.4 1013.3 -
01/08:30pm 25.0 26.5 19.8 73 3.4 W 11 15 6 8 1013.0 - -
01/08:00pm 25.2 26.7 19.8 72 3.5 W 11 15 6 8 1012.7 - -
01/07:30pm 25.3 26.5 19.9 72 3.5 W 13 19 7 10 1012.3 - -
01/07:00pm 25.5 26.7 19.9 71 3.6 W 13 17 7 9 1011.9 - -
01/06:30pm 26.1 27.4 20.2 70 3.8 WSW 13 17 7 9 1011.8 - -
01/06:00pm 27.0 28.5 20.6 68 4.2 WSW 13 17 7 9 1011.6 1011.5 -
01/05:30pm 27.5 29.0 20.6 66 4.5 WSW 13 19 7 10 1011.4 - -
01/05:00pm 28.0 29.8 20.3 63 5.1 W 11 17 6 9 1011.3 - -
01/04:30pm 28.7 29.9 19.9 59 5.8 WSW 13 20 7 11 1011.3 - -
01/04:00pm 28.9 30.2 20.1 59 5.8 WSW 13 17 7 9 1011.5 - -
01/03:30pm 28.7 29.5 19.9 59 5.8 WSW 15 20 8 11 1011.5 - -
01/03:00pm 28.8 29.5 19.7 58 5.9 WSW 15 20 8 11 1011.7 1011.6 -
01/02:30pm 28.9 29.2 19.5 57 6.1 SW 17 20 9 11 1011.8 - -
01/02:00pm 28.8 29.5 19.7 58 5.9 WSW 15 20 8 11 1012.3 - -
01/01:30pm 29.2 30.4 19.8 57 6.2 SW 13 22 7 12 1012.7 - -
01/01:00pm 29.0 30.1 19.6 57 6.1 WSW 13 19 7 10 1013.2 - -
01/12:30pm 29.1 30.2 19.7 57 6.1 WSW 13 17 7 9 1013.6 - -
01/12:00pm 28.6 29.5 19.2 56 6.1 WSW 13 19 7 10 1014.2 1014.1 -
01/11:30am 28.1 28.8 19.6 60 5.5 W 15 17 8 9 1014.6 - -
01/11:00am 28.6 29.2 19.5 58 5.9 NNW 15 19 8 10 1014.9 - -
01/10:30am 28.7 29.9 19.1 56 6.2 N 11 15 6 8 1015.3 - -
01/10:00am 28.3 28.7 18.1 54 6.5 NE 13 17 7 9 1015.6 - -
01/09:30am 27.0 27.1 17.5 56 6.0 ENE 13 20 7 11 1015.7 - -
01/09:00am 26.1 26.9 17.2 58 5.5 E 9 17 5 9 1015.6 1015.5 -
01/08:30am 24.1 25.2 18.1 69 3.8 E 9 15 5 8 1015.6 - -
01/08:00am 20.5 22.4 19.7 95 0.5 E 9 13 5 7 1015.3 - -
01/07:30am 17.4 17.9 16.6 95 0.5 ESE 9 11 5 6 1015.1 - -
01/07:00am 16.6 16.8 15.8 95 0.5 ESE 9 11 5 6 1014.7 - -
01/06:30am 15.8 15.6 14.8 94 0.6 ESE 9 11 5 6 1014.2 - -
01/06:00am 16.1 16.1 15.1 94 0.6 ESE 9 9 5 5 1013.9 1013.8 -
01/05:30am 16.3 16.7 15.2 93 0.6 ESE 7 9 4 5 1013.7 - -
01/05:00am 16.6 17.1 15.5 93 0.6 SE 7 7 4 4 1013.5 - -
01/04:30am 16.8 17.3 15.5 92 0.8 ESE 7 9 4 5 1013.3 - -
01/04:00am 17.1 17.8 15.6 91 0.9 ESE 6 7 3 4 1012.9 - -
01/03:30am 17.6 19.6 15.9 90 1.0 CALM 0 6 0 3 1012.7 - -
01/03:00am 18.8 19.5 17.1 90 1.0 NW 9 13 5 7 1012.7 1012.6 -
01/02:30am 21.5 23.5 20.7 95 0.5 NNW 11 15 6 8 1012.8 - -
01/02:00am 17.1 17.3 15.8 92 0.8 ENE 9 11 5 6 1013.1 - -
01/01:30am 16.9 17.0 15.4 91 0.9 ESE 9 11 5 6 1013.2 - -
01/01:00am 17.0 17.1 15.5 91 0.9 ESE 9 11 5 6 1013.4 - -
01/12:30am 16.5 16.4 14.9 90 0.9 E 9 11 5 6 1013.3 - -
01/12:00am 16.4 16.2 14.6 89 1.0 E 9 9 5 5 1013.1 1013.0 -
 
Date/Time
CST
Temp
°C
App
Temp
°C
Dew
Point
Rel
Hum
%
Delta-T
°C
Wind Press
QNH
hPa
Press
MSL
hPa
Rain
since 9 am
mm
Dir
 
Spd
km/h
Gust
km/h
Spd
kts
Gust
kts
31/11:30pm 16.4 16.0 14.2 87 1.3 ESE 9 9 5 5 1012.9 - -
31/11:00pm 16.8 17.0 14.6 87 1.3 E 7 13 4 7 1012.9 - -
31/10:30pm 17.2 17.0 14.7 85 1.4 S 9 9 5 5 1012.7 - -
31/10:00pm 17.8 18.1 14.9 83 1.7 SSE 7 9 4 5 1013.0 - -
31/09:30pm 18.4 18.7 14.9 80 2.0 SSE 7 9 4 5 1012.8 - -
31/09:00pm 19.7 19.9 15.8 78 2.3 SSE 9 11 5 6 1012.5 1012.5 -
31/08:30pm 20.1 20.4 14.9 72 3.0 SSE 7 9 4 5 1012.2 - -
31/08:00pm 20.8 20.8 14.2 66 3.8 SSE 7 9 4 5 1011.9 - -
31/07:30pm 23.1 23.5 15.2 61 4.7 SSE 7 11 4 6 1011.4 - -
31/07:00pm 24.5 24.4 14.9 55 5.7 ESE 9 17 5 9 1011.0 - -
31/06:30pm 26.7 26.0 12.0 40 8.5 S 7 9 4 5 1010.4 - -
31/06:00pm 29.9 28.0 7.7 25 12.1 SSE 7 11 4 6 1010.2 1010.2 -
31/05:30pm 30.5 27.8 5.7 21 13.1 ESE 9 15 5 8 1010.1 - -
31/05:00pm 30.9 28.7 9.2 26 12.2 SE 11 20 6 11 1010.0 - -
31/04:30pm 31.1 28.4 8.8 25 12.4 SE 13 24 7 13 1010.1 - -
31/04:00pm 30.6 26.7 7.1 23 12.7 SE 17 30 9 16 1010.3 - -
31/03:30pm 31.3 27.9 7.7 23 12.9 SE 15 26 8 14 1010.4 - -
31/03:00pm 30.6 27.8 11.5 30 11.1 SE 17 32 9 17 1010.7 1010.7 -
31/02:30pm 30.4 28.6 14.5 38 9.7 SE 17 26 9 14 1011.0 - -
31/02:00pm 30.5 30.5 17.2 44 8.4 S 13 24 7 13 1011.4 - -
31/01:30pm 31.1 31.2 17.4 44 8.7 SSE 13 24 7 13 1011.9 - -
31/01:00pm 28.6 28.6 19.8 59 5.7 W 19 26 10 14 1012.3 - -
31/12:30pm 29.2 28.9 18.3 51 7.0 SW 17 22 9 12 1012.9 - -
31/12:00pm 29.0 29.4 18.1 51 7.0 WSW 13 20 7 11 1013.4 1013.4 -
31/11:30am 28.9 29.9 18.7 54 6.6 W 11 17 6 9 1013.9 - -
31/11:00am 30.0 29.0 13.3 36 9.9 NE 11 17 6 9 1014.2 - -
31/10:30am 28.4 29.0 16.7 49 7.3 NNE 9 15 5 8 1014.7 - -
31/10:00am 27.7 28.8 18.1 56 6.1 NNE 9 15 5 8 1014.9 - -
31/09:30am 26.6 27.8 19.0 63 4.9 NE 11 15 6 8 1015.0 - -
31/09:00am 25.4 26.3 18.3 65 4.5 NE 11 15 6 8 1014.8 1014.8 -
31/08:30am 24.1 25.6 18.1 69 3.8 ENE 7 11 4 6 1014.8 - -
31/08:00am 21.2 22.9 18.6 85 1.6 E 7 11 4 6 1014.5 - -
31/07:30am 18.4 18.8 17.2 93 0.7 E 11 15 6 8 1014.2 - -
31/07:00am 16.6 16.6 15.3 92 0.8 E 9 13 5 7 1013.8 - -
31/06:30am 16.8 16.9 15.5 92 0.8 E 9 13 5 7 1013.4 - -
31/06:00am 17.4 17.7 16.1 92 0.8 E 9 11 5 6 1013.1 1013.1 -
31/05:30am 19.1 19.5 18.1 94 0.6 E 13 17 7 9 1013.0 - -
31/05:00am 17.3 17.4 16.5 95 0.5 E 11 13 6 7 1012.7 - -
31/04:30am 15.7 15.5 14.6 93 0.6 E 9 11 5 6 1012.4 - -
31/04:00am 15.7 15.5 14.6 93 0.6 E 9 11 5 6 1012.5 - -
31/03:30am 15.9 15.7 14.6 92 0.7 ESE 9 9 5 5 1012.6 - -
31/03:00am 16.2 16.7 14.9 92 0.7 E 6 7 3 4 1012.6 1012.6 -
31/02:30am 16.4 16.9 14.9 91 0.9 ESE 6 7 3 4 1012.8 - -
31/02:00am 16.7 17.2 15.1 90 0.9 E 6 7 3 4 1013.0 - -
31/01:30am 17.0 17.6 15.2 89 1.0 ESE 6 7 3 4 1013.2 - -
31/01:00am 17.2 18.8 15.0 87 1.3 CALM 0 0 0 0 1013.3 - -
31/12:30am 17.9 18.5 15.3 85 1.5 SSW 6 7 3 4 1013.4 - -
31/12:00am 18.6 18.6 15.3 81 1.9 W 9 13 5 7 1013.3 1013.3 -
 
Date/Time
CST
Temp
°C
App
Temp
°C
Dew
Point
Rel
Hum
%
Delta-T
°C
Wind Press
QNH
hPa
Press
MSL
hPa
Rain
since 9 am
mm
Dir
 
Spd
km/h
Gust
km/h
Spd
kts
Gust
kts
30/11:30pm 20.3 19.8 15.9 76 2.6 W 13 15 7 8 1013.4 - -
30/11:00pm 21.4 21.0 15.3 68 3.6 WNW 11 13 6 7 1013.3 - -
30/10:30pm 24.1 24.7 17.8 68 3.9 WNW 11 15 6 8 1013.2 - -
30/10:00pm 24.9 25.2 17.9 65 4.4 WNW 13 17 7 9 1013.1 - -
30/09:30pm 25.0 25.4 18.2 66 4.3 NW 13 17 7 9 1013.2 - -
30/09:00pm 25.1 25.2 18.3 66 4.3 NW 15 17 8 9 1013.0 1013.0 -

Other Formats:

Comma delimited format used in spreadsheet applications
http://www.bom.gov.au/fwo/IDD60801/IDD60801.94122.axf

JavaScript Object Notation format (JSON) in row-major order
http://www.bom.gov.au/fwo/IDD60801/IDD60801.94122.json